sensor_id;sensor_type;location;lat;lon;timestamp;temperature;humidity
67502;SHT30;54349;52.528;19.760;2023-03-01T00:01:47;23.72;41.12
67502;SHT30;54349;52.528;19.760;2023-03-01T00:04:16;23.70;41.53
67502;SHT30;54349;52.528;19.760;2023-03-01T00:06:44;23.68;42.06
67502;SHT30;54349;52.528;19.760;2023-03-01T00:09:15;23.68;42.62
67502;SHT30;54349;52.528;19.760;2023-03-01T00:11:44;23.68;42.66
67502;SHT30;54349;52.528;19.760;2023-03-01T00:14:13;23.67;42.64
67502;SHT30;54349;52.528;19.760;2023-03-01T00:16:46;23.66;42.93
67502;SHT30;54349;52.528;19.760;2023-03-01T00:19:15;23.65;43.23
67502;SHT30;54349;52.528;19.760;2023-03-01T00:21:45;23.64;43.38
67502;SHT30;54349;52.528;19.760;2023-03-01T00:24:14;23.64;42.81
67502;SHT30;54349;52.528;19.760;2023-03-01T00:26:42;23.61;42.60
67502;SHT30;54349;52.528;19.760;2023-03-01T00:29:11;23.60;42.17
67502;SHT30;54349;52.528;19.760;2023-03-01T00:31:40;23.58;41.84
67502;SHT30;54349;52.528;19.760;2023-03-01T00:34:08;23.55;41.52
67502;SHT30;54349;52.528;19.760;2023-03-01T00:36:37;23.52;41.27
67502;SHT30;54349;52.528;19.760;2023-03-01T00:39:09;23.49;41.02
67502;SHT30;54349;52.528;19.760;2023-03-01T00:41:41;23.44;40.61
67502;SHT30;54349;52.528;19.760;2023-03-01T00:44:10;23.40;40.61
67502;SHT30;54349;52.528;19.760;2023-03-01T00:46:38;23.37;40.43
67502;SHT30;54349;52.528;19.760;2023-03-01T00:49:06;23.34;40.25
67502;SHT30;54349;52.528;19.760;2023-03-01T00:51:34;23.31;40.23
67502;SHT30;54349;52.528;19.760;2023-03-01T00:54:03;23.25;39.62
67502;SHT30;54349;52.528;19.760;2023-03-01T00:56:31;23.20;39.51
67502;SHT30;54349;52.528;19.760;2023-03-01T00:59:00;23.21;39.74
67502;SHT30;54349;52.528;19.760;2023-03-01T01:01:29;23.23;39.86
67502;SHT30;54349;52.528;19.760;2023-03-01T01:04:00;23.25;40.06
67502;SHT30;54349;52.528;19.760;2023-03-01T01:06:36;23.26;40.12
67502;SHT30;54349;52.528;19.760;2023-03-01T01:09:10;23.27;40.02
67502;SHT30;54349;52.528;19.760;2023-03-01T01:11:46;23.27;39.92
67502;SHT30;54349;52.528;19.760;2023-03-01T01:14:16;23.27;39.94
67502;SHT30;54349;52.528;19.760;2023-03-01T01:16:46;23.25;39.88
67502;SHT30;54349;52.528;19.760;2023-03-01T01:19:15;23.25;39.85
67502;SHT30;54349;52.528;19.760;2023-03-01T01:21:44;23.25;39.78
67502;SHT30;54349;52.528;19.760;2023-03-01T01:24:12;23.24;39.86
67502;SHT30;54349;52.528;19.760;2023-03-01T01:26:42;23.24;39.79
67502;SHT30;54349;52.528;19.760;2023-03-01T01:29:12;23.24;39.86
67502;SHT30;54349;52.528;19.760;2023-03-01T01:31:41;23.25;39.83
67502;SHT30;54349;52.528;19.760;2023-03-01T01:34:17;23.25;39.81
67502;SHT30;54349;52.528;19.760;2023-03-01T01:36:49;23.24;39.76
67502;SHT30;54349;52.528;19.760;2023-03-01T01:39:22;23.24;39.76
67502;SHT30;54349;52.528;19.760;2023-03-01T01:41:50;23.24;39.77
67502;SHT30;54349;52.528;19.760;2023-03-01T01:44:20;23.22;39.45
67502;SHT30;54349;52.528;19.760;2023-03-01T01:47:02;23.15;39.30
67502;SHT30;54349;52.528;19.760;2023-03-01T01:52:17;23.01;38.76
67502;SHT30;54349;52.528;19.760;2023-03-01T01:55:03;22.93;38.63
67502;SHT30;54349;52.528;19.760;2023-03-01T01:58:00;22.85;38.54
67502;SHT30;54349;52.528;19.760;2023-03-01T02:00:33;22.78;38.47
67502;SHT30;54349;52.528;19.760;2023-03-01T02:03:11;22.74;38.45
67502;SHT30;54349;52.528;19.760;2023-03-01T02:05:47;22.69;38.20
67502;SHT30;54349;52.528;19.760;2023-03-01T02:08:29;22.63;38.21
67502;SHT30;54349;52.528;19.760;2023-03-01T02:11:04;22.59;38.25
67502;SHT30;54349;52.528;19.760;2023-03-01T02:13:34;22.57;38.21
67502;SHT30;54349;52.528;19.760;2023-03-01T02:16:13;22.52;38.05
67502;SHT30;54349;52.528;19.760;2023-03-01T02:18:43;22.48;37.92
67502;SHT30;54349;52.528;19.760;2023-03-01T02:24:05;22.39;37.61
67502;SHT30;54349;52.528;19.760;2023-03-01T02:26:50;22.34;37.42
67502;SHT30;54349;52.528;19.760;2023-03-01T02:29:22;22.27;37.46
67502;SHT30;54349;52.528;19.760;2023-03-01T02:31:52;22.24;37.39
67502;SHT30;54349;52.528;19.760;2023-03-01T02:34:26;22.20;37.42
67502;SHT30;54349;52.528;19.760;2023-03-01T02:36:58;22.18;37.36
67502;SHT30;54349;52.528;19.760;2023-03-01T02:39:46;22.14;37.18
67502;SHT30;54349;52.528;19.760;2023-03-01T02:42:31;22.09;37.08
67502;SHT30;54349;52.528;19.760;2023-03-01T02:45:13;22.03;36.88
67502;SHT30;54349;52.528;19.760;2023-03-01T02:47:41;21.98;36.87
67502;SHT30;54349;52.528;19.760;2023-03-01T02:50:18;21.92;36.80
67502;SHT30;54349;52.528;19.760;2023-03-01T02:56:07;21.83;36.76
67502;SHT30;54349;52.528;19.760;2023-03-01T02:58:41;21.80;36.82
67502;SHT30;54349;52.528;19.760;2023-03-01T03:01:19;21.77;36.60
67502;SHT30;54349;52.528;19.760;2023-03-01T03:03:49;21.73;36.56
67502;SHT30;54349;52.528;19.760;2023-03-01T03:06:17;21.69;36.61
67502;SHT30;54349;52.528;19.760;2023-03-01T03:08:46;21.67;36.59
67502;SHT30;54349;52.528;19.760;2023-03-01T03:11:14;21.65;36.50
67502;SHT30;54349;52.528;19.760;2023-03-01T03:13:43;21.62;36.44
67502;SHT30;54349;52.528;19.760;2023-03-01T03:16:16;21.59;36.46
67502;SHT30;54349;52.528;19.760;2023-03-01T03:18:45;21.57;36.48
67502;SHT30;54349;52.528;19.760;2023-03-01T03:21:13;21.55;36.32
67502;SHT30;54349;52.528;19.760;2023-03-01T03:23:43;21.53;36.26
67502;SHT30;54349;52.528;19.760;2023-03-01T03:26:12;21.49;36.32
67502;SHT30;54349;52.528;19.760;2023-03-01T03:28:41;21.47;36.23
67502;SHT30;54349;52.528;19.760;2023-03-01T03:31:09;21.44;36.06
67502;SHT30;54349;52.528;19.760;2023-03-01T03:33:38;21.39;35.91
67502;SHT30;54349;52.528;19.760;2023-03-01T03:36:06;21.34;35.85
67502;SHT30;54349;52.528;19.760;2023-03-01T03:38:40;21.29;35.80
67502;SHT30;54349;52.528;19.760;2023-03-01T03:41:08;21.24;35.89
67502;SHT30;54349;52.528;19.760;2023-03-01T03:43:37;21.21;35.84
67502;SHT30;54349;52.528;19.760;2023-03-01T03:46:08;21.17;35.81
67502;SHT30;54349;52.528;19.760;2023-03-01T03:48:39;21.15;35.73
67502;SHT30;54349;52.528;19.760;2023-03-01T03:51:12;21.11;35.65
67502;SHT30;54349;52.528;19.760;2023-03-01T03:53:42;21.08;35.54
67502;SHT30;54349;52.528;19.760;2023-03-01T03:56:12;21.02;35.51
67502;SHT30;54349;52.528;19.760;2023-03-01T03:58:40;20.99;35.54
67502;SHT30;54349;52.528;19.760;2023-03-01T04:01:09;20.92;35.20
67502;SHT30;54349;52.528;19.760;2023-03-01T04:03:37;20.83;35.08
67502;SHT30;54349;52.528;19.760;2023-03-01T04:06:05;20.73;35.01
67502;SHT30;54349;52.528;19.760;2023-03-01T04:08:33;20.65;35.04
67502;SHT30;54349;52.528;19.760;2023-03-01T04:11:02;20.57;35.04
67502;SHT30;54349;52.528;19.760;2023-03-01T04:13:52;20.53;35.11
67502;SHT30;54349;52.528;19.760;2023-03-01T04:16:23;20.51;35.22
67502;SHT30;54349;52.528;19.760;2023-03-01T04:18:52;20.53;35.32
67502;SHT30;54349;52.528;19.760;2023-03-01T04:21:21;20.54;35.14
67502;SHT30;54349;52.528;19.760;2023-03-01T04:23:49;20.53;35.08
67502;SHT30;54349;52.528;19.760;2023-03-01T04:26:20;20.52;35.14
67502;SHT30;54349;52.528;19.760;2023-03-01T04:28:48;20.53;35.11
67502;SHT30;54349;52.528;19.760;2023-03-01T04:31:18;20.52;34.94
67502;SHT30;54349;52.528;19.760;2023-03-01T04:33:52;20.48;34.73
67502;SHT30;54349;52.528;19.760;2023-03-01T04:36:23;20.43;34.67
67502;SHT30;54349;52.528;19.760;2023-03-01T04:38:55;20.39;34.54
67502;SHT30;54349;52.528;19.760;2023-03-01T04:41:24;20.37;34.48
67502;SHT30;54349;52.528;19.760;2023-03-01T04:43:53;20.34;34.33
67502;SHT30;54349;52.528;19.760;2023-03-01T04:46:21;20.32;34.28
67502;SHT30;54349;52.528;19.760;2023-03-01T04:48:50;20.32;34.25
67502;SHT30;54349;52.528;19.760;2023-03-01T04:51:19;20.34;34.18
67502;SHT30;54349;52.528;19.760;2023-03-01T04:53:47;20.35;34.12
67502;SHT30;54349;52.528;19.760;2023-03-01T04:56:15;20.38;34.00
67502;SHT30;54349;52.528;19.760;2023-03-01T04:58:47;20.38;33.93
67502;SHT30;54349;52.528;19.760;2023-03-01T05:01:16;20.41;34.01
67502;SHT30;54349;52.528;19.760;2023-03-01T05:03:48;20.45;33.84
67502;SHT30;54349;52.528;19.760;2023-03-01T05:06:19;20.48;33.79
67502;SHT30;54349;52.528;19.760;2023-03-01T05:08:48;20.52;33.75
67502;SHT30;54349;52.528;19.760;2023-03-01T05:11:17;20.55;33.76
67502;SHT30;54349;52.528;19.760;2023-03-01T05:13:44;20.61;33.66
67502;SHT30;54349;52.528;19.760;2023-03-01T05:16:13;20.65;33.56
67502;SHT30;54349;52.528;19.760;2023-03-01T05:18:41;20.70;33.49
67502;SHT30;54349;52.528;19.760;2023-03-01T05:21:10;20.72;33.26
67502;SHT30;54349;52.528;19.760;2023-03-01T05:23:44;20.73;33.40
67502;SHT30;54349;52.528;19.760;2023-03-01T05:26:15;20.78;33.46
67502;SHT30;54349;52.528;19.760;2023-03-01T05:28:55;20.87;33.34
67502;SHT30;54349;52.528;19.760;2023-03-01T05:31:27;20.92;33.29
67502;SHT30;54349;52.528;19.760;2023-03-01T05:33:55;21.02;33.47
67502;SHT30;54349;52.528;19.760;2023-03-01T05:36:23;21.16;33.52
67502;SHT30;54349;52.528;19.760;2023-03-01T05:38:52;21.28;33.44
67502;SHT30;54349;52.528;19.760;2023-03-01T05:41:22;21.41;33.41
67502;SHT30;54349;52.528;19.760;2023-03-01T05:43:50;21.56;33.22
67502;SHT30;54349;52.528;19.760;2023-03-01T05:46:18;21.55;33.02
67502;SHT30;54349;52.528;19.760;2023-03-01T05:48:46;21.50;32.89
67502;SHT30;54349;52.528;19.760;2023-03-01T05:51:16;21.48;33.00
67502;SHT30;54349;52.528;19.760;2023-03-01T05:53:45;21.49;32.95
67502;SHT30;54349;52.528;19.760;2023-03-01T05:56:13;21.50;32.81
67502;SHT30;54349;52.528;19.760;2023-03-01T05:58:41;21.49;32.74
67502;SHT30;54349;52.528;19.760;2023-03-01T06:01:13;21.50;32.80
67502;SHT30;54349;52.528;19.760;2023-03-01T06:03:41;21.52;32.67
67502;SHT30;54349;52.528;19.760;2023-03-01T06:06:09;21.51;32.65
67502;SHT30;54349;52.528;19.760;2023-03-01T06:08:38;21.53;32.66
67502;SHT30;54349;52.528;19.760;2023-03-01T06:11:06;21.53;32.49
67502;SHT30;54349;52.528;19.760;2023-03-01T06:13:35;21.52;32.50
67502;SHT30;54349;52.528;19.760;2023-03-01T06:16:04;21.50;32.48
67502;SHT30;54349;52.528;19.760;2023-03-01T06:18:34;21.50;32.49
67502;SHT30;54349;52.528;19.760;2023-03-01T06:21:03;21.49;32.49
67502;SHT30;54349;52.528;19.760;2023-03-01T06:23:34;21.52;32.48
67502;SHT30;54349;52.528;19.760;2023-03-01T06:26:06;21.55;32.45
67502;SHT30;54349;52.528;19.760;2023-03-01T06:28:35;21.56;32.35
67502;SHT30;54349;52.528;19.760;2023-03-01T06:31:04;21.58;32.43
67502;SHT30;54349;52.528;19.760;2023-03-01T06:33:36;21.61;32.32
67502;SHT30;54349;52.528;19.760;2023-03-01T06:36:04;21.59;32.21
67502;SHT30;54349;52.528;19.760;2023-03-01T06:38:34;21.58;32.27
67502;SHT30;54349;52.528;19.760;2023-03-01T06:41:02;21.58;32.24
67502;SHT30;54349;52.528;19.760;2023-03-01T06:43:30;21.57;32.21
67502;SHT30;54349;52.528;19.760;2023-03-01T06:45:58;21.56;32.29
67502;SHT30;54349;52.528;19.760;2023-03-01T06:48:27;21.58;32.21
67502;SHT30;54349;52.528;19.760;2023-03-01T06:50:57;21.60;32.14
67502;SHT30;54349;52.528;19.760;2023-03-01T06:53:28;21.60;32.13
67502;SHT30;54349;52.528;19.760;2023-03-01T06:55:57;21.62;32.22
67502;SHT30;54349;52.528;19.760;2023-03-01T06:58:27;21.63;32.01
67502;SHT30;54349;52.528;19.760;2023-03-01T07:00:56;21.60;32.09
67502;SHT30;54349;52.528;19.760;2023-03-01T07:03:24;21.60;32.25
67502;SHT30;54349;52.528;19.760;2023-03-01T07:05:52;21.60;33.79
67502;SHT30;54349;52.528;19.760;2023-03-01T07:08:20;21.60;34.84
67502;SHT30;54349;52.528;19.760;2023-03-01T07:10:48;21.62;35.51
67502;SHT30;54349;52.528;19.760;2023-03-01T07:13:23;21.66;35.95
67502;SHT30;54349;52.528;19.760;2023-03-01T07:15:52;21.69;36.24
67502;SHT30;54349;52.528;19.760;2023-03-01T07:18:20;21.69;36.36
67502;SHT30;54349;52.528;19.760;2023-03-01T07:20:49;21.70;36.42
67502;SHT30;54349;52.528;19.760;2023-03-01T07:23:17;21.71;36.53
67502;SHT30;54349;52.528;19.760;2023-03-01T07:25:54;21.70;36.46
67502;SHT30;54349;52.528;19.760;2023-03-01T07:28:23;21.67;36.59
67502;SHT30;54349;52.528;19.760;2023-03-01T07:30:51;21.71;36.69
67502;SHT30;54349;52.528;19.760;2023-03-01T07:33:20;21.74;36.90
67502;SHT30;54349;52.528;19.760;2023-03-01T07:35:55;21.74;36.68
67502;SHT30;54349;52.528;19.760;2023-03-01T07:38:28;21.73;36.64
67502;SHT30;54349;52.528;19.760;2023-03-01T07:41:00;21.75;36.54
67502;SHT30;54349;52.528;19.760;2023-03-01T07:43:30;21.74;36.62
67502;SHT30;54349;52.528;19.760;2023-03-01T07:46:02;21.72;36.59
67502;SHT30;54349;52.528;19.760;2023-03-01T07:48:31;21.71;36.71
67502;SHT30;54349;52.528;19.760;2023-03-01T07:51:01;21.72;36.65
67502;SHT30;54349;52.528;19.760;2023-03-01T07:53:33;21.68;36.74
67502;SHT30;54349;52.528;19.760;2023-03-01T07:58:41;21.74;36.78
67502;SHT30;54349;52.528;19.760;2023-03-01T08:01:14;21.76;36.79
67502;SHT30;54349;52.528;19.760;2023-03-01T08:03:46;21.76;36.63
67502;SHT30;54349;52.528;19.760;2023-03-01T08:06:15;21.71;36.66
67502;SHT30;54349;52.528;19.760;2023-03-01T08:08:45;21.70;36.68
67502;SHT30;54349;52.528;19.760;2023-03-01T08:11:14;21.70;36.67
67502;SHT30;54349;52.528;19.760;2023-03-01T08:13:43;21.68;36.78
67502;SHT30;54349;52.528;19.760;2023-03-01T08:16:12;21.72;37.13
67502;SHT30;54349;52.528;19.760;2023-03-01T08:18:42;21.84;37.11
67502;SHT30;54349;52.528;19.760;2023-03-01T08:21:12;21.87;37.08
67502;SHT30;54349;52.528;19.760;2023-03-01T08:23:43;21.87;36.90
67502;SHT30;54349;52.528;19.760;2023-03-01T08:26:14;21.86;36.73
67502;SHT30;54349;52.528;19.760;2023-03-01T08:28:46;21.84;36.68
67502;SHT30;54349;52.528;19.760;2023-03-01T08:31:20;21.83;36.71
67502;SHT30;54349;52.528;19.760;2023-03-01T08:33:58;21.83;36.66
67502;SHT30;54349;52.528;19.760;2023-03-01T08:36:39;21.79;36.71
67502;SHT30;54349;52.528;19.760;2023-03-01T08:39:10;21.79;36.70
67502;SHT30;54349;52.528;19.760;2023-03-01T08:41:41;21.77;36.54
67502;SHT30;54349;52.528;19.760;2023-03-01T08:44:10;21.76;36.67
67502;SHT30;54349;52.528;19.760;2023-03-01T08:46:42;21.80;36.69
67502;SHT30;54349;52.528;19.760;2023-03-01T08:49:13;21.83;36.69
67502;SHT30;54349;52.528;19.760;2023-03-01T08:51:44;21.84;36.55
67502;SHT30;54349;52.528;19.760;2023-03-01T08:54:15;21.84;36.60
67502;SHT30;54349;52.528;19.760;2023-03-01T08:56:47;21.86;36.70
67502;SHT30;54349;52.528;19.760;2023-03-01T08:59:17;21.92;36.79
67502;SHT30;54349;52.528;19.760;2023-03-01T09:01:45;21.98;36.78
67502;SHT30;54349;52.528;19.760;2023-03-01T09:04:14;22.05;36.73
67502;SHT30;54349;52.528;19.760;2023-03-01T09:06:43;22.08;36.74
67502;SHT30;54349;52.528;19.760;2023-03-01T09:09:15;22.13;36.94
67502;SHT30;54349;52.528;19.760;2023-03-01T09:11:45;22.17;36.74
67502;SHT30;54349;52.528;19.760;2023-03-01T09:14:14;22.19;36.92
67502;SHT30;54349;52.528;19.760;2023-03-01T09:16:42;22.24;36.87
67502;SHT30;54349;52.528;19.760;2023-03-01T09:19:11;22.27;36.90
67502;SHT30;54349;52.528;19.760;2023-03-01T09:21:39;22.32;37.06
67502;SHT30;54349;52.528;19.760;2023-03-01T09:24:14;22.36;36.90
67502;SHT30;54349;52.528;19.760;2023-03-01T09:26:42;22.38;36.90
67502;SHT30;54349;52.528;19.760;2023-03-01T09:29:16;22.40;36.76
67502;SHT30;54349;52.528;19.760;2023-03-01T09:31:44;22.41;36.62
67502;SHT30;54349;52.528;19.760;2023-03-01T09:34:12;22.41;36.59
67502;SHT30;54349;52.528;19.760;2023-03-01T09:36:43;22.41;36.55
67502;SHT30;54349;52.528;19.760;2023-03-01T09:39:11;22.39;36.46
67502;SHT30;54349;52.528;19.760;2023-03-01T09:44:36;22.37;36.61
67502;SHT30;54349;52.528;19.760;2023-03-01T09:47:26;22.38;36.55
67502;SHT30;54349;52.528;19.760;2023-03-01T09:50:16;22.40;36.62
67502;SHT30;54349;52.528;19.760;2023-03-01T09:52:54;22.42;36.50
67502;SHT30;54349;52.528;19.760;2023-03-01T10:01:30;22.51;36.83
67502;SHT30;54349;52.528;19.760;2023-03-01T10:10:23;22.63;36.59
67502;SHT30;54349;52.528;19.760;2023-03-01T10:13:02;22.66;36.48
67502;SHT30;54349;52.528;19.760;2023-03-01T10:16:15;22.61;36.32
67502;SHT30;54349;52.528;19.760;2023-03-01T10:18:55;22.61;36.63
67502;SHT30;54349;52.528;19.760;2023-03-01T10:21:28;22.67;36.51
67502;SHT30;54349;52.528;19.760;2023-03-01T10:24:08;22.68;36.56
67502;SHT30;54349;52.528;19.760;2023-03-01T10:26:47;22.68;36.47
67502;SHT30;54349;52.528;19.760;2023-03-01T10:29:48;22.71;36.56
67502;SHT30;54349;52.528;19.760;2023-03-01T10:32:34;22.81;36.57
67502;SHT30;54349;52.528;19.760;2023-03-01T10:38:08;22.94;36.29
67502;SHT30;54349;52.528;19.760;2023-03-01T10:43:21;22.98;36.49
67502;SHT30;54349;52.528;19.760;2023-03-01T10:45:50;23.05;36.47
67502;SHT30;54349;52.528;19.760;2023-03-01T10:48:23;23.11;36.36
67502;SHT30;54349;52.528;19.760;2023-03-01T10:56:04;23.16;35.69
67502;SHT30;54349;52.528;19.760;2023-03-01T10:58:37;23.10;35.72
67502;SHT30;54349;52.528;19.760;2023-03-01T11:01:26;23.09;35.89
67502;SHT30;54349;52.528;19.760;2023-03-01T11:06:35;23.09;35.78
67502;SHT30;54349;52.528;19.760;2023-03-01T11:09:17;23.11;35.90
67502;SHT30;54349;52.528;19.760;2023-03-01T11:11:54;23.12;35.85
67502;SHT30;54349;52.528;19.760;2023-03-01T11:14:28;23.15;36.06
67502;SHT30;54349;52.528;19.760;2023-03-01T11:17:51;23.19;36.05
67502;SHT30;54349;52.528;19.760;2023-03-01T11:22:55;23.27;35.93
67502;SHT30;54349;52.528;19.760;2023-03-01T11:25:35;23.27;35.75
67502;SHT30;54349;52.528;19.760;2023-03-01T11:28:16;23.30;35.85
67502;SHT30;54349;52.528;19.760;2023-03-01T11:33:53;23.39;35.90
67502;SHT30;54349;52.528;19.760;2023-03-01T11:36:30;23.44;35.93
67502;SHT30;54349;52.528;19.760;2023-03-01T11:42:09;23.45;35.27
67502;SHT30;54349;52.528;19.760;2023-03-01T11:44:50;23.44;35.35
67502;SHT30;54349;52.528;19.760;2023-03-01T11:53:20;23.45;35.06
67502;SHT30;54349;52.528;19.760;2023-03-01T12:02:10;23.45;35.68
67502;SHT30;54349;52.528;19.760;2023-03-01T12:26:59;23.67;35.72
67502;SHT30;54349;52.528;19.760;2023-03-01T12:42:04;23.77;35.51
67502;SHT30;54349;52.528;19.760;2023-03-01T12:45:01;23.80;35.29
67502;SHT30;54349;52.528;19.760;2023-03-01T12:51:34;23.82;35.49
67502;SHT30;54349;52.528;19.760;2023-03-01T12:54:15;23.85;35.52
67502;SHT30;54349;52.528;19.760;2023-03-01T12:56:50;23.87;35.27
67502;SHT30;54349;52.528;19.760;2023-03-01T13:03:22;23.83;34.89
67502;SHT30;54349;52.528;19.760;2023-03-01T13:06:08;23.81;34.81
67502;SHT30;54349;52.528;19.760;2023-03-01T13:08:49;23.80;34.97
67502;SHT30;54349;52.528;19.760;2023-03-01T13:11:31;23.78;35.08
67502;SHT30;54349;52.528;19.760;2023-03-01T13:15:04;23.78;35.40
67502;SHT30;54349;52.528;19.760;2023-03-01T13:16:59;23.77;35.45
67502;SHT30;54349;52.528;19.760;2023-03-01T13:19:28;23.76;35.44
67502;SHT30;54349;52.528;19.760;2023-03-01T13:21:59;23.78;35.44
67502;SHT30;54349;52.528;19.760;2023-03-01T13:24:35;23.80;35.45
67502;SHT30;54349;52.528;19.760;2023-03-01T13:29:57;23.84;35.30
67502;SHT30;54349;52.528;19.760;2023-03-01T13:32:31;23.86;35.42
67502;SHT30;54349;52.528;19.760;2023-03-01T13:37:43;23.91;35.63
67502;SHT30;54349;52.528;19.760;2023-03-01T13:42:45;23.95;35.53
67502;SHT30;54349;52.528;19.760;2023-03-01T13:48:18;23.98;35.29
67502;SHT30;54349;52.528;19.760;2023-03-01T13:51:01;24.00;35.24
67502;SHT30;54349;52.528;19.760;2023-03-01T13:53:34;24.02;35.23
67502;SHT30;54349;52.528;19.760;2023-03-01T13:56:18;24.04;35.13
67502;SHT30;54349;52.528;19.760;2023-03-01T13:58:54;24.06;35.24
67502;SHT30;54349;52.528;19.760;2023-03-01T14:01:40;24.08;35.09
67502;SHT30;54349;52.528;19.760;2023-03-01T14:07:11;24.11;35.14
67502;SHT30;54349;52.528;19.760;2023-03-01T14:09:55;24.13;35.09
67502;SHT30;54349;52.528;19.760;2023-03-01T14:15:42;24.15;35.37
67502;SHT30;54349;52.528;19.760;2023-03-01T14:18:25;24.19;35.34
67502;SHT30;54349;52.528;19.760;2023-03-01T14:21:27;24.24;35.53
67502;SHT30;54349;52.528;19.760;2023-03-01T14:23:57;24.27;35.55
67502;SHT30;54349;52.528;19.760;2023-03-01T14:26:26;24.31;35.54
67502;SHT30;54349;52.528;19.760;2023-03-01T14:28:56;24.33;35.43
67502;SHT30;54349;52.528;19.760;2023-03-01T14:31:37;24.36;35.79
67502;SHT30;54349;52.528;19.760;2023-03-01T14:34:21;24.35;35.35
67502;SHT30;54349;52.528;19.760;2023-03-01T14:36:51;24.32;35.34
67502;SHT30;54349;52.528;19.760;2023-03-01T14:39:23;24.27;35.02
67502;SHT30;54349;52.528;19.760;2023-03-01T14:41:56;24.18;34.87
67502;SHT30;54349;52.528;19.760;2023-03-01T14:44:43;24.11;34.95
67502;SHT30;54349;52.528;19.760;2023-03-01T14:47:34;24.03;35.12
67502;SHT30;54349;52.528;19.760;2023-03-01T14:50:13;23.97;35.23
67502;SHT30;54349;52.528;19.760;2023-03-01T14:52:50;23.87;35.07
67502;SHT30;54349;52.528;19.760;2023-03-01T14:55:25;23.79;35.21
67502;SHT30;54349;52.528;19.760;2023-03-01T14:57:59;23.75;35.33
67502;SHT30;54349;52.528;19.760;2023-03-01T15:00:30;23.70;35.66
67502;SHT30;54349;52.528;19.760;2023-03-01T15:03:11;23.66;35.53
67502;SHT30;54349;52.528;19.760;2023-03-01T15:05:47;23.59;35.48
67502;SHT30;54349;52.528;19.760;2023-03-01T15:08:20;23.54;35.54
67502;SHT30;54349;52.528;19.760;2023-03-01T15:11:00;23.48;35.37
67502;SHT30;54349;52.528;19.760;2023-03-01T15:13:58;23.42;35.72
67502;SHT30;54349;52.528;19.760;2023-03-01T15:16:31;23.45;36.13
67502;SHT30;54349;52.528;19.760;2023-03-01T15:19:06;23.49;36.25
67502;SHT30;54349;52.528;19.760;2023-03-01T15:21:36;23.52;36.14
67502;SHT30;54349;52.528;19.760;2023-03-01T15:26:57;23.58;36.21
67502;SHT30;54349;52.528;19.760;2023-03-01T15:29:34;23.60;36.16
67502;SHT30;54349;52.528;19.760;2023-03-01T15:32:24;23.63;36.32
67502;SHT30;54349;52.528;19.760;2023-03-01T15:35:00;23.65;36.40
67502;SHT30;54349;52.528;19.760;2023-03-01T15:41:24;23.70;36.40
67502;SHT30;54349;52.528;19.760;2023-03-01T15:44:03;23.72;36.31
67502;SHT30;54349;52.528;19.760;2023-03-01T15:47:01;23.72;36.21
67502;SHT30;54349;52.528;19.760;2023-03-01T15:49:51;23.74;36.25
67502;SHT30;54349;52.528;19.760;2023-03-01T15:52:27;23.76;36.25
67502;SHT30;54349;52.528;19.760;2023-03-01T15:55:14;23.77;36.16
67502;SHT30;54349;52.528;19.760;2023-03-01T15:57:49;23.77;36.12
67502;SHT30;54349;52.528;19.760;2023-03-01T16:00:28;23.79;36.01
67502;SHT30;54349;52.528;19.760;2023-03-01T16:02:56;23.78;35.95
67502;SHT30;54349;52.528;19.760;2023-03-01T16:05:26;23.78;35.82
67502;SHT30;54349;52.528;19.760;2023-03-01T16:07:58;23.79;35.83
67502;SHT30;54349;52.528;19.760;2023-03-01T16:10:26;23.79;35.80
67502;SHT30;54349;52.528;19.760;2023-03-01T16:12:55;23.79;35.73
67502;SHT30;54349;52.528;19.760;2023-03-01T16:15:28;23.81;35.70
67502;SHT30;54349;52.528;19.760;2023-03-01T16:17:59;23.80;35.57
67502;SHT30;54349;52.528;19.760;2023-03-01T16:20:28;23.77;35.22
67502;SHT30;54349;52.528;19.760;2023-03-01T16:23:01;23.65;35.34
67502;SHT30;54349;52.528;19.760;2023-03-01T16:25:34;23.48;35.50
67502;SHT30;54349;52.528;19.760;2023-03-01T16:28:04;23.33;35.67
67502;SHT30;54349;52.528;19.760;2023-03-01T16:30:37;23.20;35.81
67502;SHT30;54349;52.528;19.760;2023-03-01T16:33:09;23.09;36.00
67502;SHT30;54349;52.528;19.760;2023-03-01T16:35:57;22.99;36.03
67502;SHT30;54349;52.528;19.760;2023-03-01T16:38:28;22.90;36.10
67502;SHT30;54349;52.528;19.760;2023-03-01T16:40:58;22.81;36.31
67502;SHT30;54349;52.528;19.760;2023-03-01T16:43:26;22.73;36.45
67502;SHT30;54349;52.528;19.760;2023-03-01T16:45:55;22.68;36.50
67502;SHT30;54349;52.528;19.760;2023-03-01T16:48:24;22.62;36.57
67502;SHT30;54349;52.528;19.760;2023-03-01T16:50:59;22.56;36.63
67502;SHT30;54349;52.528;19.760;2023-03-01T16:53:29;22.52;36.72
67502;SHT30;54349;52.528;19.760;2023-03-01T16:55:57;22.47;36.79
67502;SHT30;54349;52.528;19.760;2023-03-01T16:58:26;22.43;36.84
67502;SHT30;54349;52.528;19.760;2023-03-01T17:00:55;22.38;36.81
67502;SHT30;54349;52.528;19.760;2023-03-01T17:03:25;22.32;36.92
67502;SHT30;54349;52.528;19.760;2023-03-01T17:05:54;22.30;37.05
67502;SHT30;54349;52.528;19.760;2023-03-01T17:08:22;22.27;37.13
67502;SHT30;54349;52.528;19.760;2023-03-01T17:10:50;22.26;37.15
67502;SHT30;54349;52.528;19.760;2023-03-01T17:13:18;22.24;37.10
67502;SHT30;54349;52.528;19.760;2023-03-01T17:15:46;22.21;37.10
67502;SHT30;54349;52.528;19.760;2023-03-01T17:18:15;22.19;37.37
67502;SHT30;54349;52.528;19.760;2023-03-01T17:20:43;22.23;37.55
67502;SHT30;54349;52.528;19.760;2023-03-01T17:23:11;22.30;37.43
67502;SHT30;54349;52.528;19.760;2023-03-01T17:25:43;22.30;37.47
67502;SHT30;54349;52.528;19.760;2023-03-01T17:28:12;22.31;37.57
67502;SHT30;54349;52.528;19.760;2023-03-01T17:30:42;22.34;37.57
67502;SHT30;54349;52.528;19.760;2023-03-01T17:33:14;22.35;37.60
67502;SHT30;54349;52.528;19.760;2023-03-01T17:35:43;22.38;37.54
67502;SHT30;54349;52.528;19.760;2023-03-01T17:38:14;22.39;37.54
67502;SHT30;54349;52.528;19.760;2023-03-01T17:40:47;22.43;37.72
67502;SHT30;54349;52.528;19.760;2023-03-01T17:43:17;22.47;37.74
67502;SHT30;54349;52.528;19.760;2023-03-01T17:45:48;22.55;37.73
67502;SHT30;54349;52.528;19.760;2023-03-01T17:48:20;22.61;37.53
67502;SHT30;54349;52.528;19.760;2023-03-01T17:50:51;22.65;37.37
67502;SHT30;54349;52.528;19.760;2023-03-01T17:53:28;22.70;37.25
67502;SHT30;54349;52.528;19.760;2023-03-01T17:55:59;22.75;37.20
67502;SHT30;54349;52.528;19.760;2023-03-01T17:58:31;22.81;37.06